Time;durP1;ratioP1;P1;durP2;ratioP2;P2;SDS_P1;SDS_P2;PMS_P1;PMS_P2;Temp;Humidity;BMP_temperature;BMP_pressure;BME280_temperature;BME280_humidity;BME280_pressure;Samples;Min_cycle;Max_cycle;Signal;HPM_P1;HPM_P2
2022/02/22 00:01:34;;;;;;;24.75;16.67;;;;;;;8.87;100.00;93529.47;4977718;28;20033;-81
2022/02/22 00:03:59;;;;;;;21.90;17.73;;;;;;;8.77;100.00;93511.00;5010133;28;20007;-80
2022/02/22 00:06:25;;;;;;;23.02;18.20;;;;;;;8.58;100.00;93516.91;5017121;28;20033;-85
2022/02/22 00:08:51;;;;;;;21.80;16.92;;;;;;;8.59;100.00;93507.38;5031465;28;20045;-79
2022/02/22 00:11:16;;;;;;;23.02;18.50;;;;;;;8.60;100.00;93511.56;5011906;28;20022;-78
2022/02/22 00:13:42;;;;;;;26.85;16.83;;;;;;;8.45;100.00;93529.75;5000843;28;20044;-85
2022/02/22 00:16:08;;;;;;;23.85;17.98;;;;;;;8.37;100.00;93523.00;5290471;23;20052;-82
2022/02/22 00:18:33;;;;;;;24.60;17.50;;;;;;;8.32;100.00;93516.81;5141281;23;20054;-83
2022/02/22 00:20:59;;;;;;;22.48;18.38;;;;;;;8.25;100.00;93526.28;5641158;23;20082;-80
2022/02/22 00:23:24;;;;;;;26.13;17.63;;;;;;;8.47;100.00;93543.28;5197015;23;20084;-78
2022/02/22 00:25:50;;;;;;;23.40;18.25;;;;;;;8.53;100.00;93557.19;5008455;28;20057;-83
2022/02/22 00:28:20;;;;;;;21.48;17.77;;;;;;;8.67;100.00;93541.53;5023363;28;20052;-78
2022/02/22 00:30:49;;;;;;;31.15;17.70;;;;;;;8.76;100.00;93542.16;5007323;28;20026;-84
2022/02/22 00:33:15;;;;;;;25.15;17.73;;;;;;;8.96;100.00;93540.41;5023058;28;20045;-78
2022/02/22 00:35:41;;;;;;;20.90;16.33;;;;;;;9.14;100.00;93538.06;5005668;28;20058;-78
2022/02/22 00:40:48;;;;;;;22.63;18.00;;;;;;;8.66;100.00;93484.97;5773369;23;20053;-83
2022/02/22 00:43:14;;;;;;;27.02;18.75;;;;;;;8.87;100.00;93514.00;5002376;28;20061;-82
2022/02/22 00:45:40;;;;;;;26.08;17.45;;;;;;;8.84;100.00;93477.44;5012507;28;20057;-83
2022/02/22 00:48:07;;;;;;;22.95;16.90;;;;;;;8.97;100.00;93498.91;5014760;28;20038;-78
2022/02/22 00:50:34;;;;;;;26.10;17.95;;;;;;;9.03;100.00;93484.41;5031029;28;20022;-82
2022/02/22 00:53:00;;;;;;;22.33;18.63;;;;;;;9.15;100.00;93520.78;5243468;23;20055;-81
2022/02/22 00:55:25;;;;;;;20.55;16.67;;;;;;;9.13;100.00;93492.56;4994858;28;20039;-79
2022/02/22 00:57:52;;;;;;;23.85;15.05;;;;;;;9.22;100.00;93506.88;4996402;28;20074;-81
2022/02/22 01:00:18;;;;;;;23.58;16.67;;;;;;;9.27;100.00;93506.28;4998939;28;20014;-84
2022/02/22 01:05:19;;;;;;;24.13;16.27;;;;;;;9.20;100.00;93464.16;5308385;23;20069;-83
2022/02/22 01:07:44;;;;;;;19.10;15.70;;;;;;;9.19;100.00;93471.13;5350975;23;20073;-83
2022/02/22 01:10:10;;;;;;;20.42;16.30;;;;;;;9.35;100.00;93475.09;4997062;23;20041;-83
2022/02/22 01:15:11;;;;;;;20.30;16.60;;;;;;;9.20;100.00;93457.22;5292944;23;20022;-80
2022/02/22 01:20:12;;;;;;;26.55;18.42;;;;;;;9.22;100.00;93491.38;5718687;23;20057;-77
2022/02/22 01:22:38;;;;;;;25.35;14.10;;;;;;;9.17;100.00;93454.25;5028191;23;20081;-80
2022/02/22 01:25:05;;;;;;;23.95;16.95;;;;;;;9.13;100.00;93453.03;5545058;23;20030;-82
2022/02/22 01:30:10;;;;;;;26.08;17.77;;;;;;;9.13;100.00;93458.19;5125021;23;20094;-84
2022/02/22 01:32:36;;;;;;;23.45;15.52;;;;;;;9.15;100.00;93449.25;5000282;28;20036;-85
2022/02/22 01:35:02;;;;;;;18.98;15.25;;;;;;;9.06;100.00;93452.25;5247384;23;20053;-86
2022/02/22 01:37:27;;;;;;;19.35;14.82;;;;;;;9.13;100.00;93463.38;5137541;23;20046;-85
2022/02/22 01:39:53;;;;;;;24.10;16.10;;;;;;;9.08;100.00;93452.84;5282697;23;20049;-85
2022/02/22 01:42:19;;;;;;;21.70;15.98;;;;;;;9.07;100.00;93451.25;5224916;23;20121;-85
2022/02/22 01:44:48;;;;;;;22.23;15.27;;;;;;;9.04;100.00;93436.16;5297115;23;1516898;-84
2022/02/22 01:47:16;;;;;;;24.52;15.25;;;;;;;9.15;100.00;93438.16;5211413;23;20038;-80
2022/02/22 01:49:42;;;;;;;19.17;14.70;;;;;;;9.13;100.00;93432.38;5524514;23;20133;-84
2022/02/22 06:21:18;;;;;;;7.47;6.13;;;;;;;8.10;100.00;93654.50;5083764;23;20042;-85
2022/02/22 06:23:44;;;;;;;6.93;5.70;;;;;;;7.91;100.00;93620.69;5018069;28;20097;-85
2022/02/22 06:26:09;;;;;;;7.28;5.93;;;;;;;8.02;100.00;93628.88;5018051;28;20015;-85
2022/02/22 06:28:36;;;;;;;9.25;6.00;;;;;;;7.97;100.00;93616.53;5001392;28;20029;-84
2022/02/22 06:31:02;;;;;;;7.88;4.85;;;;;;;8.14;100.00;93624.78;5002295;28;20069;-85
2022/02/22 06:33:27;;;;;;;5.07;4.57;;;;;;;8.22;100.00;93634.97;5018746;28;20002;-84
2022/02/22 06:38:28;;;;;;;5.00;4.50;;;;;;;8.46;100.00;93655.19;5806211;23;20090;-84
2022/02/22 06:40:54;;;;;;;4.75;4.25;;;;;;;8.44;100.00;93619.22;4993319;28;20090;-85
2022/02/22 06:43:19;;;;;;;6.45;5.30;;;;;;;8.37;100.00;93617.63;5008515;28;20039;-84
2022/02/22 06:45:45;;;;;;;7.63;6.80;;;;;;;8.41;100.00;93627.34;5011423;28;20054;-85
2022/02/22 06:48:14;;;;;;;21.73;18.25;;;;;;;8.65;100.00;93653.69;4992276;28;20030;-85
2022/02/22 06:50:44;;;;;;;16.23;14.55;;;;;;;8.68;100.00;93622.34;5010649;28;20030;-84
2022/02/22 06:53:11;;;;;;;8.88;7.05;;;;;;;8.83;100.00;93647.00;5014283;28;20090;-84
2022/02/22 06:55:38;;;;;;;5.50;5.00;;;;;;;8.99;100.00;93663.94;5013596;28;20061;-83
2022/02/22 06:58:06;;;;;;;6.10;5.28;;;;;;;8.75;100.00;93621.38;5010809;28;20081;-85
2022/02/22 07:00:36;;;;;;;7.65;6.85;;;;;;;9.13;100.00;93615.72;5065285;23;20061;-83
2022/02/22 07:03:04;;;;;;;6.70;4.50;;;;;;;8.94;100.00;93620.66;5723523;23;20068;-84
2022/02/22 07:05:31;;;;;;;5.45;3.80;;;;;;;9.48;100.00;93651.59;5011806;28;20062;-83
2022/02/22 07:13:27;;;;;;;3.35;3.05;;;;;;;15.34;75.22;93637.44;5369102;23;20070;-88
2022/02/22 07:15:52;;;;;;;3.00;2.80;;;;;;;16.15;59.75;93634.47;4937247;28;20048;-87
2022/02/22 07:18:18;;;;;;;4.35;3.95;;;;;;;17.12;56.47;93635.59;4971369;28;20042;-85
2022/02/22 07:20:43;;;;;;;3.05;2.75;;;;;;;16.30;57.01;93638.13;4953541;28;20515;-86
2022/02/22 07:23:08;;;;;;;3.20;2.90;;;;;;;16.27;58.05;93622.91;4953776;28;20069;-87
2022/02/22 07:25:34;;;;;;;4.32;3.92;;;;;;;14.49;66.27;93637.25;4954452;28;20033;-90
2022/02/22 07:28:01;;;;;;;5.03;3.67;;;;;;;18.52;52.56;93623.38;4937857;28;20023;-88
2022/02/22 07:30:27;;;;;;;3.20;2.88;;;;;;;20.64;46.45;93613.53;4971788;28;20500;-87
2022/02/22 07:32:58;;;;;;;4.43;3.17;;;;;;;20.53;45.70;93618.00;4970548;28;20030;-86
2022/02/22 07:35:23;;;;;;;5.25;3.45;;;;;;;22.30;42.20;93620.72;4954501;28;20022;-87
2022/02/22 07:37:49;;;;;;;3.45;3.05;;;;;;;21.06;43.47;93608.69;4953333;28;20452;-88
2022/02/22 07:40:16;;;;;;;3.28;3.03;;;;;;;20.92;44.13;93611.09;4958333;28;20031;-89
2022/02/22 07:42:42;;;;;;;3.95;3.58;;;;;;;19.30;47.91;93620.66;4948079;28;20093;-85
2022/02/22 07:45:08;;;;;;;4.30;3.88;;;;;;;20.52;45.14;93614.56;4948055;28;20483;-90
2022/02/22 07:47:34;;;;;;;3.58;3.28;;;;;;;18.37;47.80;93611.72;4927568;29;20042;-93
2022/02/22 07:50:00;;;;;;;5.18;3.80;;;;;;;17.71;52.12;93606.97;4937514;29;20027;-93
2022/02/22 07:52:29;;;;;;;4.10;3.80;;;;;;;16.80;54.23;93613.75;4944844;29;20027;-88
2022/02/22 07:57:30;;;;;;;4.53;4.13;;;;;;;17.61;53.68;93591.94;5742779;23;20087;-92
2022/02/22 07:59:56;;;;;;;7.78;5.70;;;;;;;18.07;52.51;93605.47;4952861;28;20062;-89
2022/02/22 08:14:09;;;;;;;10.48;8.00;;;;;;;16.40;61.69;93621.78;5106787;27;20387;-88
2022/02/22 08:16:34;;;;;;;7.63;6.85;;;;;;;15.58;62.05;93618.88;5088584;28;20432;-88
2022/02/22 08:19:01;;;;;;;7.90;7.20;;;;;;;13.30;72.60;93616.59;5105658;28;20095;-91
2022/02/22 08:21:26;;;;;;;9.90;7.95;;;;;;;14.93;67.90;93618.38;5088083;28;20185;-91
2022/02/22 08:23:52;;;;;;;8.55;7.80;;;;;;;16.29;61.01;93614.81;5087775;28;20372;-90
2022/02/22 08:26:18;;;;;;;9.73;8.13;;;;;;;15.59;63.77;93617.84;5106714;28;20020;-90
2022/02/22 08:28:44;;;;;;;8.02;6.75;;;;;;;16.41;59.90;93612.91;5084964;28;20067;-87
2022/02/22 08:31:10;;;;;;;7.63;7.03;;;;;;;16.49;59.32;93609.91;5098755;28;20075;-88
2022/02/22 08:33:36;;;;;;;7.65;6.03;;;;;;;16.87;55.43;93601.28;5077979;28;20461;-87
2022/02/22 08:36:01;;;;;;;7.63;6.93;;;;;;;16.50;56.94;93606.25;5088811;28;20032;-87
2022/02/22 08:38:27;;;;;;;7.80;6.95;;;;;;;18.27;52.75;93611.63;5085750;28;20020;-86
2022/02/22 08:40:52;;;;;;;6.28;5.65;;;;;;;18.45;51.39;93618.31;5079109;28;20073;-85
2022/02/22 08:43:18;;;;;;;7.97;6.70;;;;;;;18.22;52.34;93618.66;5062410;28;20053;-84
2022/02/22 08:45:44;;;;;;;7.05;6.35;;;;;;;17.24;55.89;93619.78;5068422;28;20036;-87
2022/02/22 08:48:11;;;;;;;7.47;6.88;;;;;;;16.76;58.97;93625.72;5050894;28;20028;-87
2022/02/22 08:50:36;;;;;;;7.38;6.78;;;;;;;16.60;58.15;93624.72;5050219;28;20570;-85
2022/02/22 08:53:02;;;;;;;9.25;6.57;;;;;;;15.36;64.12;93624.94;5050899;28;20028;-86
2022/02/22 08:55:28;;;;;;;8.07;7.10;;;;;;;15.24;66.89;93627.59;5085615;28;20024;-90
2022/02/22 08:57:56;;;;;;;7.32;6.63;;;;;;;14.41;70.60;93629.78;5088057;28;20559;-90
2022/02/22 09:00:23;;;;;;;7.72;7.13;;;;;;;14.29;71.25;93628.97;5075013;28;20031;-89
2022/02/22 09:02:53;;;;;;;7.38;6.75;;;;;;;14.39;68.99;93637.00;5092600;28;20399;-90
2022/02/22 09:17:35;;;;;;;33.67;9.75;;;;;;;14.11;70.57;93654.06;5107298;27;20384;-90
2022/02/22 09:20:02;;;;;;;6.10;4.97;;;;;;;13.57;71.60;93621.25;5398031;23;20023;-89
2022/02/22 09:22:28;;;;;;;5.93;4.03;;;;;;;13.65;71.11;93615.72;5064648;28;20587;-91
2022/02/22 09:24:53;;;;;;;5.78;4.10;;;;;;;13.20;72.73;93638.72;5027311;28;20040;-86
2022/02/22 09:27:19;;;;;;;3.78;3.47;;;;;;;13.65;72.48;93638.34;5173803;23;20499;-85
2022/02/22 09:29:44;;;;;;;4.10;3.03;;;;;;;13.16;74.54;93632.38;5036532;28;20062;-82
2022/02/22 09:32:10;;;;;;;2.95;2.65;;;;;;;13.97;71.24;93655.28;5025143;28;20066;-91
2022/02/22 09:34:35;;;;;;;2.90;2.65;;;;;;;13.75;73.59;93672.41;5032624;28;20518;-85
2022/02/22 09:37:03;;;;;;;2.40;2.30;;;;;;;13.68;73.28;93669.91;5045507;28;20030;-83
2022/02/22 10:08:01;;;;;;;10.73;9.60;;;;;;;10.13;100.00;93703.56;5464257;22;20057;-82
2022/02/22 10:13:02;;;;;;;9.80;8.90;;;;;;;9.76;100.00;93721.22;5740020;22;20038;-81
2022/02/22 10:15:28;;;;;;;9.60;8.70;;;;;;;9.30;100.00;93720.31;5040967;28;20025;-80
2022/02/22 10:45:33;;;;;;;8.57;7.88;;;;;;;7.78;100.00;93759.72;5128120;27;20403;-83
2022/02/22 10:47:58;;;;;;;8.05;7.45;;;;;;;7.56;100.00;93778.72;5160147;27;20100;-78
2022/02/22 10:50:31;;;;;;;7.85;7.15;;;;;;;7.46;100.00;93739.56;5107450;28;20036;-80
2022/02/22 10:52:57;;;;;;;7.43;6.72;;;;;;;7.11;100.00;93789.28;5104510;28;20031;-81
2022/02/22 10:55:23;;;;;;;6.00;5.53;;;;;;;6.94;100.00;93750.03;5121340;28;20024;-82
2022/02/22 10:57:49;;;;;;;8.02;7.22;;;;;;;6.95;100.00;93740.56;5113960;28;20039;-81
2022/02/22 11:00:16;;;;;;;5.78;5.13;;;;;;;6.90;100.00;93777.91;5110642;28;20040;-80
2022/02/22 11:02:45;;;;;;;5.10;4.70;;;;;;;6.58;100.00;93752.53;5115306;28;20024;-79
2022/02/22 11:05:12;;;;;;;5.10;4.70;;;;;;;6.69;100.00;93754.66;5118425;28;20033;-83
2022/02/22 11:07:38;;;;;;;4.82;4.43;;;;;;;6.60;100.00;93748.03;5108317;28;20016;-83
2022/02/22 11:10:05;;;;;;;4.50;4.10;;;;;;;6.45;100.00;93760.06;5105796;28;20023;-82
2022/02/22 11:12:33;;;;;;;3.88;3.58;;;;;;;6.31;100.00;93778.81;5101119;28;20024;-79
2022/02/22 11:15:10;;;;;;;3.78;3.42;;;;;;;6.61;100.00;93793.34;5124949;28;20032;-77
2022/02/22 11:17:50;;;;;;;3.63;3.33;;;;;;;6.85;100.00;93792.28;5107882;28;20485;-80
2022/02/22 11:20:29;;;;;;;;;;;;;;;6.49;100.00;93787.00;5133421;28;20031;-82
2022/02/22 11:23:00;;;;;;;2.70;2.50;;;;;;;6.34;100.00;93743.28;5174962;23;19914;-84
2022/02/22 11:25:28;;;;;;;3.38;2.97;;;;;;;6.35;100.00;93768.03;5230305;23;20051;-84
2022/02/22 11:28:00;;;;;;;3.38;3.10;;;;;;;6.17;100.00;93746.16;5393500;22;20071;-84
2022/02/22 11:30:30;;;;;;;3.65;3.38;;;;;;;6.02;100.00;93758.19;5104528;28;20035;-82
2022/02/22 11:33:08;;;;;;;3.28;3.08;;;;;;;6.48;100.00;93798.28;5102497;28;20044;-83
2022/02/22 11:35:46;;;;;;;3.22;3.00;;;;;;;6.31;100.00;93789.91;5107785;28;20055;-85
2022/02/22 11:38:13;;;;;;;3.40;3.20;;;;;;;6.18;100.00;93791.47;5098617;28;20028;-79
2022/02/22 11:40:38;;;;;;;3.45;3.15;;;;;;;6.19;100.00;93795.66;5079830;28;20045;-76
2022/02/22 11:43:12;;;;;;;3.80;3.28;;;;;;;6.07;100.00;93787.53;5080738;28;20024;-83
2022/02/22 11:45:38;;;;;;;3.38;3.00;;;;;;;6.08;100.00;93783.19;5081875;28;20043;-78
2022/02/22 11:48:17;;;;;;;4.60;2.60;;;;;;;6.41;100.00;93783.72;5068378;28;20031;-82
2022/02/22 11:50:44;;;;;;;3.22;2.92;;;;;;;6.55;100.00;93785.53;5070525;28;20060;-80
2022/02/22 11:53:19;;;;;;;3.85;3.55;;;;;;;6.70;100.00;93788.91;5086450;28;20036;-77
2022/02/22 11:55:46;;;;;;;3.00;2.80;;;;;;;6.21;100.00;93747.41;5325343;22;20019;-85
2022/02/22 11:58:13;;;;;;;3.08;2.88;;;;;;;6.16;100.00;93739.44;5060818;28;20032;-80
2022/02/22 12:03:14;;;;;;;3.03;2.83;;;;;;;6.08;100.00;93747.22;5207332;22;20051;-83
2022/02/22 12:08:22;;;;;;;3.08;2.88;;;;;;;6.04;100.00;93756.22;5275379;23;20045;-82
2022/02/22 12:10:49;;;;;;;7.00;2.78;;;;;;;6.25;100.00;93766.66;5323783;23;20101;-82
2022/02/22 12:13:17;;;;;;;2.60;2.40;;;;;;;6.14;100.00;93755.03;5368679;23;20049;-84
2022/02/22 12:26:05;;;;;;;4.00;3.50;;;;;;;5.98;100.00;93754.34;5523787;22;20061;-85
2022/02/22 12:28:31;;;;;;;3.78;3.47;;;;;;;6.09;100.00;93766.81;5254119;22;20007;-83
2022/02/22 12:58:57;;;;;;;4.00;3.70;;;;;;;6.04;100.00;93848.75;6152879;23;20045;31
2022/02/22 13:06:55;;;;;;;4.47;4.18;;;;;;;5.56;100.00;93818.97;5044996;23;20079;-84
2022/02/22 13:09:21;;;;;;;4.32;4.03;;;;;;;5.60;100.00;93821.03;4945001;28;20074;-79
2022/02/22 13:11:49;;;;;;;4.50;4.20;;;;;;;5.83;100.00;93828.78;4941926;29;20042;-83
2022/02/22 13:14:15;;;;;;;6.18;5.35;;;;;;;5.45;100.00;93830.44;4961566;29;20042;-84
2022/02/22 13:16:56;;;;;;;4.47;4.18;;;;;;;5.83;100.00;93878.41;4957446;29;20041;-83
2022/02/22 13:19:32;;;;;;;5.00;4.60;;;;;;;5.50;100.00;93825.59;5457299;23;20071;-79
2022/02/22 13:21:59;;;;;;;5.28;4.78;;;;;;;5.60;100.00;93867.25;5112309;23;20116;-79
2022/02/22 13:24:24;;;;;;;4.72;4.32;;;;;;;5.37;100.00;93851.00;4959960;28;20022;-82
2022/02/22 13:26:50;;;;;;;4.90;4.47;;;;;;;5.61;100.00;93878.34;4960693;28;20039;-76
2022/02/22 13:29:15;;;;;;;4.95;4.10;;;;;;;5.52;100.00;93890.38;4937277;28;20110;-77
2022/02/22 13:31:41;;;;;;;4.55;4.25;;;;;;;5.66;100.00;93904.31;4952133;28;20440;-78
2022/02/22 13:34:09;;;;;;;4.90;4.50;;;;;;;5.50;100.00;93899.22;4957864;28;20035;-78
2022/02/22 13:36:40;;;;;;;4.95;4.55;;;;;;;5.59;100.00;93904.16;4959382;28;20027;-78
2022/02/22 13:39:18;;;;;;;10.13;5.28;;;;;;;5.42;100.00;93891.56;4947493;28;20062;-80
2022/02/22 13:41:45;;;;;;;5.22;4.72;;;;;;;5.49;100.00;93905.34;4947062;28;20037;-81
2022/02/22 13:44:11;;;;;;;5.28;4.88;;;;;;;5.54;100.00;93909.03;4949383;28;20393;-80
2022/02/22 13:46:42;;;;;;;9.48;4.95;;;;;;;5.57;100.00;93913.81;4990019;28;20034;-81
2022/02/22 13:49:10;;;;;;;5.50;5.00;;;;;;;5.44;100.00;93913.53;4954383;28;20182;-82
2022/02/22 13:51:40;;;;;;;5.25;4.85;;;;;;;5.53;100.00;93922.81;4959068;28;20038;-83
2022/02/22 13:54:08;;;;;;;6.43;5.38;;;;;;;5.53;100.00;93919.44;4945706;29;20058;-80
2022/02/22 13:56:35;;;;;;;7.82;5.90;;;;;;;5.51;100.00;93918.81;4953630;28;20039;-79
2022/02/22 13:59:08;;;;;;;5.30;4.90;;;;;;;5.38;100.00;93929.59;4962705;29;20567;-78
2022/02/22 14:02:04;;;;;;;5.90;4.82;;;;;;;5.27;100.00;93930.75;4935599;29;20036;-82
2022/02/22 14:04:33;;;;;;;6.82;6.20;;;;;;;5.25;100.00;93929.31;4926548;29;20095;-82
2022/02/22 14:07:03;;;;;;;6.32;5.82;;;;;;;5.28;100.00;93929.78;4952738;29;20027;-80
2022/02/22 14:09:29;;;;;;;;;;;;;;;5.13;100.00;93938.31;4953492;29;20035;-78
2022/02/22 14:11:55;;;;;;;6.15;5.65;;;;;;;5.42;100.00;93943.72;4976185;28;19921;-83
2022/02/22 14:14:20;;;;;;;7.18;6.57;;;;;;;5.18;100.00;93944.56;4959615;29;20479;-80
2022/02/22 14:16:46;;;;;;;7.93;7.18;;;;;;;5.02;100.00;93948.91;4957878;28;20027;-84
2022/02/22 14:19:12;;;;;;;8.57;7.70;;;;;;;5.28;100.00;93958.03;4955080;29;20815;-84
2022/02/22 14:21:40;;;;;;;8.35;7.65;;;;;;;5.21;100.00;93951.94;4953233;29;20261;-84
2022/02/22 14:24:06;;;;;;;10.43;7.90;;;;;;;5.25;100.00;93957.53;4953048;29;20171;-83
2022/02/22 14:26:32;;;;;;;8.40;7.60;;;;;;;4.92;100.00;93973.94;4951817;29;20075;-81
2022/02/22 14:28:58;;;;;;;9.98;9.13;;;;;;;4.91;100.00;93978.28;4951675;29;20039;-83
2022/02/22 14:31:24;;;;;;;12.13;8.75;;;;;;;5.15;100.00;93975.69;4964617;29;20091;-84
2022/02/22 14:33:50;;;;;;;8.48;7.78;;;;;;;5.19;100.00;93987.25;4960130;29;20012;-82
2022/02/22 14:36:15;;;;;;;9.57;8.27;;;;;;;5.11;100.00;93979.53;4951869;29;20039;-81
2022/02/22 14:38:41;;;;;;;12.88;8.45;;;;;;;5.30;100.00;93988.66;4956578;29;20054;-84
2022/02/22 14:41:07;;;;;;;9.95;8.93;;;;;;;5.06;100.00;93983.56;4964635;28;20036;-80
2022/02/22 14:43:33;;;;;;;9.38;8.48;;;;;;;4.78;100.00;93955.66;4974351;23;20047;-84
2022/02/22 14:46:00;;;;;;;11.30;10.40;;;;;;;4.85;100.00;93970.44;4973225;28;20094;-79
2022/02/22 14:48:26;;;;;;;9.95;8.95;;;;;;;4.44;100.00;93949.88;4952986;29;20027;-78
2022/02/22 14:50:53;;;;;;;8.95;8.05;;;;;;;4.98;100.00;94022.03;4974878;28;20011;-84
2022/02/22 14:53:18;;;;;;;10.18;9.27;;;;;;;4.63;100.00;93975.22;4971923;29;20015;-84
2022/02/22 14:58:19;;;;;;;11.52;10.43;;;;;;;4.53;100.00;93971.19;5779927;23;20042;-80
2022/02/22 15:00:45;;;;;;;10.95;9.85;;;;;;;4.76;100.00;94006.31;5697102;23;20085;-83
2022/02/22 15:03:13;;;;;;;11.50;10.48;;;;;;;4.64;100.00;94002.47;5303711;23;20040;-83
2022/02/22 15:08:14;;;;;;;14.25;12.48;;;;;;;4.56;100.00;93989.63;5976328;23;20014;-82
2022/02/22 15:10:42;;;;;;;11.35;10.23;;;;;;;4.36;100.00;93996.00;5481148;23;20083;-84
2022/02/22 15:33:49;;;;;;;17.45;15.65;;;;;;;4.41;100.00;94068.09;5988109;23;20018;-84
2022/02/22 15:36:15;;;;;;;15.82;14.27;;;;;;;4.28;100.00;94031.84;5539186;23;20097;-84
2022/02/22 15:38:41;;;;;;;16.27;14.40;;;;;;;4.67;100.00;94071.38;5676199;23;21001;-83
2022/02/22 16:04:39;;;;;;;23.40;20.00;;;;;;;4.13;100.00;94115.38;5822458;23;20031;-81
2022/02/22 16:09:40;;;;;;;24.88;20.90;;;;;;;4.02;100.00;94093.38;5839481;23;20046;-85
2022/02/22 16:12:06;;;;;;;24.23;21.77;;;;;;;3.87;100.00;94094.91;5315399;23;20060;-81
2022/02/22 16:17:06;;;;;;;28.45;23.45;;;;;;;4.12;100.00;94119.69;5400654;23;20051;-80
2022/02/22 16:19:32;;;;;;;26.75;23.83;;;;;;;4.10;100.00;94139.56;4980673;28;20245;-80
2022/02/22 16:21:58;;;;;;;31.38;24.17;;;;;;;3.82;100.00;94119.38;5079675;23;20054;-81
2022/02/22 16:40:37;;;;;;;31.25;26.45;;;;;;;4.04;100.00;94267.44;5484543;23;19906;-81
2022/02/22 17:01:54;;;;;;;37.63;26.92;;;;;;;3.66;100.00;94258.31;5500950;23;20074;-84
2022/02/22 17:04:22;;;;;;;31.65;27.20;;;;;;;3.88;100.00;94321.06;5136011;23;20042;-84
2022/02/22 17:06:47;;;;;;;30.63;24.73;;;;;;;3.64;100.00;94276.34;5018177;28;20045;-85
2022/02/22 17:11:49;;;;;;;35.05;30.38;;;;;;;3.63;100.00;94289.28;5112493;23;20085;-83
2022/02/22 17:16:50;;;;;;;38.20;30.20;;;;;;;3.72;100.00;94296.13;5704342;23;20023;-81
2022/02/22 17:39:57;;;;;;;34.25;28.75;;;;;;;3.63;100.00;94340.47;6041060;23;20017;-83
2022/02/22 17:47:33;;;;;;;34.17;27.90;;;;;;;3.92;100.00;94355.66;5555645;23;20136;-85
2022/02/22 17:49:58;;;;;;;38.53;31.92;;;;;;;3.79;100.00;94378.28;5009119;28;20090;-86
2022/02/22 17:57:34;;;;;;;32.05;27.85;;;;;;;3.64;100.00;94370.25;5744450;23;20053;-84
2022/02/22 18:00:00;;;;;;;38.38;32.80;;;;;;;3.62;100.00;94367.84;4982238;28;20505;-86
2022/02/22 18:02:26;;;;;;;37.47;32.28;;;;;;;3.56;100.00;94375.31;5635621;23;20031;-86
2022/02/22 18:20:22;;;;;;;38.15;30.02;;;;;;;3.71;100.00;94420.75;5751389;23;20085;-83
2022/02/22 18:22:48;;;;;;;42.40;31.25;;;;;;;3.67;100.00;94428.84;4996283;28;20058;-82
2022/02/22 18:25:15;;;;;;;36.72;29.25;;;;;;;3.72;100.00;94436.94;5012729;23;20058;-82
2022/02/22 18:27:41;;;;;;;39.67;32.38;;;;;;;3.72;100.00;94434.38;5001572;28;20014;-84
2022/02/22 18:30:08;;;;;;;42.10;31.50;;;;;;;3.94;100.00;94474.97;5015772;28;20034;-84
2022/02/22 18:32:35;;;;;;;37.28;30.38;;;;;;;3.92;100.00;94483.72;5013723;28;20113;-83
2022/02/22 18:35:01;;;;;;;53.30;42.47;;;;;;;3.52;100.00;94433.66;5015575;28;20036;-83
2022/02/22 18:37:27;;;;;;;38.08;32.47;;;;;;;3.75;100.00;94446.06;5000930;28;20100;-84
2022/02/22 18:39:54;;;;;;;44.60;35.03;;;;;;;3.75;100.00;94453.75;5016688;28;20057;-81
2022/02/22 18:42:20;;;;;;;49.03;40.03;;;;;;;3.83;100.00;94480.25;5000252;28;20037;-85
2022/02/22 18:44:46;;;;;;;42.58;34.70;;;;;;;3.95;100.00;94509.06;5017419;28;20029;-84
2022/02/22 18:47:11;;;;;;;36.50;30.75;;;;;;;3.70;100.00;94462.66;5024031;28;20034;-84
2022/02/22 18:49:37;;;;;;;41.65;34.70;;;;;;;3.64;100.00;94476.03;4999650;28;20064;-83
2022/02/22 18:52:04;;;;;;;42.30;34.47;;;;;;;3.89;100.00;94518.09;4999625;28;20025;-84
2022/02/22 18:54:29;;;;;;;46.08;36.65;;;;;;;3.72;100.00;94500.94;5016043;28;20034;-84
2022/02/22 18:56:55;;;;;;;39.15;33.60;;;;;;;3.71;100.00;94486.50;5012480;28;20034;-84
2022/02/22 18:59:21;;;;;;;39.10;34.90;;;;;;;3.71;100.00;94494.19;5004296;28;20029;-85
2022/02/22 19:01:47;;;;;;;39.90;31.58;;;;;;;3.76;100.00;94537.31;5002132;28;20026;-85
2022/02/22 19:04:13;;;;;;;44.00;34.22;;;;;;;3.54;100.00;94492.34;4998389;28;20032;-84
2022/02/22 19:06:39;;;;;;;39.38;33.08;;;;;;;3.55;100.00;94494.78;5003787;28;20128;-85
2022/02/22 19:09:06;;;;;;;42.03;34.80;;;;;;;3.56;100.00;94506.63;5022002;28;20018;-86
2022/02/22 19:11:32;;;;;;;39.15;31.23;;;;;;;3.77;100.00;94547.41;5020735;28;20048;-86
2022/02/22 19:14:00;;;;;;;39.78;33.50;;;;;;;3.60;100.00;94522.50;5245287;23;20070;-84
2022/02/22 19:19:01;;;;;;;41.65;33.95;;;;;;;3.40;100.00;94526.91;5125442;23;20053;-84
2022/02/22 19:21:27;;;;;;;44.25;36.40;;;;;;;3.43;100.00;94518.94;5005624;28;20037;-83
2022/02/22 19:29:02;;;;;;;36.80;31.90;;;;;;;3.72;100.00;94522.19;5142390;23;20058;-83
2022/02/22 19:31:27;;;;;;;41.08;33.60;;;;;;;3.82;100.00;94524.72;4981622;28;20029;-84
2022/02/22 19:36:28;;;;;;;40.63;32.88;;;;;;;3.86;100.00;94527.81;4993585;28;20079;-83
2022/02/22 19:38:54;;;;;;;44.42;35.95;;;;;;;3.71;100.00;94550.50;4978483;29;20066;-85
2022/02/22 19:41:19;;;;;;;40.30;33.63;;;;;;;3.79;100.00;94568.53;4982012;28;20023;-86
2022/02/22 19:43:45;;;;;;;45.33;35.55;;;;;;;3.72;100.00;94549.56;4979151;28;20030;-86
2022/02/22 19:46:10;;;;;;;43.17;35.83;;;;;;;3.72;100.00;94565.72;4978358;29;20028;-83
2022/02/22 19:48:36;;;;;;;41.10;31.55;;;;;;;4.02;100.00;94597.19;4978191;28;20091;-86
2022/02/22 19:51:02;;;;;;;39.67;31.13;;;;;;;3.91;100.00;94587.13;4997614;28;20007;-83
2022/02/22 19:53:28;;;;;;;45.83;37.15;;;;;;;3.77;100.00;94569.63;4996449;28;20042;-84
2022/02/22 19:55:54;;;;;;;47.05;36.80;;;;;;;3.77;100.00;94572.19;4981433;28;20023;-86
2022/02/22 20:00:55;;;;;;;42.00;34.03;;;;;;;3.96;100.00;94615.66;5208130;23;20271;-86
